Time;durP1;ratioP1;P1;durP2;ratioP2;P2;SDS_P1;SDS_P2;PMS_P1;PMS_P2;Temp;Humidity;BMP_temperature;BMP_pressure;BME280_temperature;BME280_humidity;BME280_pressure;Samples;Min_cycle;Max_cycle;Signal;HPM_P1;HPM_P2
2023/12/14 00:01:54;;;;;;;;;;;0.30;99.90;;;;;;5001003;28;20501;-62
2023/12/14 00:04:21;;;;;;;;;;;0.30;99.90;;;;;;5005977;28;20384;-62
2023/12/14 00:06:48;;;;;;;;;;;0.30;99.90;;;;;;5004597;28;20025;-63
2023/12/14 00:09:15;;;;;;;;;;;0.30;99.90;;;;;;5002175;28;20036;-60
2023/12/14 00:11:41;;;;;;;;;;;0.30;99.90;;;;;;5002634;28;19934;-63
2023/12/14 00:14:08;;;;;;;;;;;0.30;99.90;;;;;;5001765;28;19930;-60
2023/12/14 00:16:35;;;;;;;;;;;0.30;99.90;;;;;;5001812;28;19925;-61
2023/12/14 00:19:02;;;;;;;;;;;0.30;99.90;;;;;;5000589;28;19937;-61
2023/12/14 00:21:29;;;;;;;;;;;0.30;99.90;;;;;;5006634;28;19925;-63
2023/12/14 00:23:56;;;;;;;;;;;0.30;99.90;;;;;;4998848;28;19926;-60
2023/12/14 00:26:23;;;;;;;;;;;0.30;99.90;;;;;;4999910;28;20291;-61
2023/12/14 00:28:50;;;;;;;;;;;0.30;99.90;;;;;;4997847;28;19929;-61
2023/12/14 00:31:19;;;;;;;;;;;0.20;99.90;;;;;;4999143;28;21998;-61
2023/12/14 00:33:46;;;;;;;;;;;0.20;99.90;;;;;;4999541;28;19940;-60
2023/12/14 00:36:19;;;;;;;;;;;0.20;99.90;;;;;;5000868;28;19929;-62
2023/12/14 00:38:46;;;;;;;;;;;0.20;99.90;;;;;;5005733;28;19925;-61
2023/12/14 00:41:13;;;;;;;;;;;0.20;99.90;;;;;;4999490;28;19929;-65
2023/12/14 00:43:40;;;;;;;;;;;0.30;99.90;;;;;;5003430;28;19999;-60
2023/12/14 00:46:07;;;;;;;;;;;0.30;99.90;;;;;;4997096;28;19925;-60
2023/12/14 00:48:34;;;;;;;;;;;0.30;99.90;;;;;;5003961;28;20020;-65
2023/12/14 00:51:01;;;;;;;;;;;0.20;99.90;;;;;;4998356;28;20398;-60
2023/12/14 00:53:27;;;;;;;;;;;0.30;99.90;;;;;;5001807;28;20020;-61
2023/12/14 00:55:54;;;;;;;;;;;0.20;99.90;;;;;;5002364;28;19972;-61
2023/12/14 00:58:21;;;;;;;;;;;0.20;99.90;;;;;;5002043;28;19930;-64
2023/12/14 01:00:48;;;;;;;;;;;0.20;99.90;;;;;;5001137;28;19926;-61
2023/12/14 01:03:15;;;;;;;;;;;0.20;99.90;;;;;;5003600;28;20024;-62
2023/12/14 01:05:42;;;;;;;;;;;0.20;99.90;;;;;;4999584;28;19976;-61
2023/12/14 01:08:09;;;;;;;;;;;0.20;99.90;;;;;;5002930;28;20307;-60
2023/12/14 01:10:36;;;;;;;;;;;0.20;99.90;;;;;;5006124;28;20317;-61
2023/12/14 01:13:03;;;;;;;;;;;0.20;99.90;;;;;;4997850;28;20020;-62
2023/12/14 01:15:29;;;;;;;;;;;0.20;99.90;;;;;;5001360;28;20638;-61
2023/12/14 01:17:56;;;;;;;;;;;0.20;99.90;;;;;;5001710;28;19988;-60
2023/12/14 01:20:23;;;;;;;;;;;0.20;99.90;;;;;;4999458;28;20295;-61
2023/12/14 01:22:50;;;;;;;;;;;0.20;99.90;;;;;;5000434;28;20327;-60
2023/12/14 01:25:17;;;;;;;;;;;0.20;99.90;;;;;;5000318;28;19926;-60
2023/12/14 01:27:43;;;;;;;;;;;0.20;99.90;;;;;;5000485;28;19957;-60
2023/12/14 01:30:10;;;;;;;;;;;0.10;99.90;;;;;;5000858;28;20303;-61
2023/12/14 01:32:38;;;;;;;;;;;0.10;99.90;;;;;;5001642;28;19934;-60
2023/12/14 01:35:05;;;;;;;;;;;0.00;99.90;;;;;;4997628;28;19984;-62
2023/12/14 01:37:31;;;;;;;;;;;0.00;99.90;;;;;;5000281;28;19936;-62
2023/12/14 01:39:58;;;;;;;;;;;0.00;99.90;;;;;;4999072;28;19936;-60
2023/12/14 01:42:26;;;;;;;;;;;0.00;99.90;;;;;;5000127;28;20815;-61
2023/12/14 01:44:52;;;;;;;;;;;0.00;99.90;;;;;;5002035;28;19972;-62
2023/12/14 01:47:19;;;;;;;;;;;0.00;99.90;;;;;;5001762;28;19980;-61
2023/12/14 01:49:46;;;;;;;;;;;0.00;99.90;;;;;;5001684;28;20458;-63
2023/12/14 01:52:13;;;;;;;;;;;0.00;99.90;;;;;;4999595;28;20528;-62
2023/12/14 01:54:40;;;;;;;;;;;0.00;99.90;;;;;;5000211;28;19926;-64
2023/12/14 01:57:07;;;;;;;;;;;0.00;99.90;;;;;;4997133;28;19929;-61
2023/12/14 01:59:33;;;;;;;;;;;0.00;99.90;;;;;;5001013;28;20422;-62
2023/12/14 02:02:02;;;;;;;;;;;0.00;99.90;;;;;;4996849;28;20028;-63
2023/12/14 02:04:30;;;;;;;;;;;0.00;99.90;;;;;;4999608;28;19926;-63
2023/12/14 02:06:57;;;;;;;;;;;0.00;99.90;;;;;;4999646;28;19929;-61
2023/12/14 02:09:24;;;;;;;;;;;0.00;99.90;;;;;;4999053;28;19930;-61
2023/12/14 02:11:51;;;;;;;;;;;0.00;99.90;;;;;;5000892;28;19932;-62
2023/12/14 02:14:21;;;;;;;;;;;0.00;99.90;;;;;;5001962;28;19936;-62
2023/12/14 02:16:48;;;;;;;;;;;0.00;99.90;;;;;;4997160;28;20285;-63
2023/12/14 02:19:15;;;;;;;;;;;-0.10;99.90;;;;;;4992322;28;20040;-60
2023/12/14 02:21:42;;;;;;;;;;;0.00;99.90;;;;;;5002992;28;19925;-60
2023/12/14 02:24:08;;;;;;;;;;;-0.10;99.90;;;;;;5004710;28;19929;-61
2023/12/14 02:26:35;;;;;;;;;;;-0.10;99.90;;;;;;5001678;28;19937;-60
2023/12/14 02:29:02;;;;;;;;;;;0.00;99.90;;;;;;4999813;28;19961;-61
2023/12/14 02:31:29;;;;;;;;;;;-0.10;99.90;;;;;;5000845;28;19929;-62
2023/12/14 02:33:56;;;;;;;;;;;-0.10;99.90;;;;;;5002215;28;19933;-62
2023/12/14 02:36:23;;;;;;;;;;;-0.10;99.90;;;;;;5003598;28;19925;-60
2023/12/14 02:38:50;;;;;;;;;;;-0.10;99.90;;;;;;5007588;28;20355;-62
2023/12/14 02:41:17;;;;;;;;;;;-0.10;99.90;;;;;;5004511;28;19930;-62
2023/12/14 02:43:43;;;;;;;;;;;-0.10;99.90;;;;;;5001488;28;20448;-62
2023/12/14 02:46:11;;;;;;;;;;;-0.10;99.90;;;;;;4997346;28;19934;-67
2023/12/14 02:48:40;;;;;;;;;;;-0.20;99.90;;;;;;4997093;28;19926;-61
2023/12/14 02:51:07;;;;;;;;;;;-0.20;99.90;;;;;;5001407;28;20028;-63
2023/12/14 02:53:34;;;;;;;;;;;-0.20;99.90;;;;;;5003722;28;19996;-65
2023/12/14 02:56:01;;;;;;;;;;;-0.20;99.90;;;;;;5003608;28;19933;-59
2023/12/14 02:58:28;;;;;;;;;;;-0.20;99.90;;;;;;5001594;28;20462;-62
2023/12/14 03:00:55;;;;;;;;;;;-0.20;99.90;;;;;;5003276;28;20536;-60
2023/12/14 03:03:22;;;;;;;;;;;-0.20;99.90;;;;;;5000317;28;19929;-62
2023/12/14 03:05:49;;;;;;;;;;;-0.10;99.90;;;;;;4999334;28;20023;-60
2023/12/14 03:08:16;;;;;;;;;;;-0.20;99.90;;;;;;5002404;28;19957;-61
2023/12/14 03:10:43;;;;;;;;;;;-0.20;99.90;;;;;;5000823;28;19987;-62
2023/12/14 03:13:10;;;;;;;;;;;-0.20;99.90;;;;;;5000749;28;19934;-62
2023/12/14 03:15:36;;;;;;;;;;;-0.20;99.90;;;;;;5004374;28;19925;-62
2023/12/14 03:18:05;;;;;;;;;;;-0.20;99.90;;;;;;5004107;28;20037;-62
2023/12/14 03:20:32;;;;;;;;;;;-0.20;99.90;;;;;;5002350;28;19997;-60
2023/12/14 03:22:59;;;;;;;;;;;-0.20;99.90;;;;;;5003018;28;20576;-62
2023/12/14 03:25:26;;;;;;;;;;;-0.20;99.90;;;;;;5000442;28;19934;-64
2023/12/14 03:27:53;;;;;;;;;;;-0.20;99.90;;;;;;5003579;28;19991;-60
2023/12/14 03:30:20;;;;;;;;;;;-0.20;99.90;;;;;;5001647;28;19976;-60
2023/12/14 03:32:46;;;;;;;;;;;-0.20;99.90;;;;;;4997318;28;19953;-63
2023/12/14 03:35:13;;;;;;;;;;;-0.30;99.90;;;;;;5006392;28;19929;-63
2023/12/14 03:37:41;;;;;;;;;;;-0.30;99.90;;;;;;5002244;28;19929;-68
2023/12/14 03:40:08;;;;;;;;;;;-0.30;99.90;;;;;;4999113;28;20648;-61
2023/12/14 03:42:35;;;;;;;;;;;-0.20;99.90;;;;;;5003154;28;19949;-61
2023/12/14 03:45:02;;;;;;;;;;;-0.20;99.90;;;;;;4998899;28;20295;-66
2023/12/14 03:47:29;;;;;;;;;;;-0.20;99.90;;;;;;5004805;28;19933;-61
2023/12/14 03:49:57;;;;;;;;;;;-0.20;99.90;;;;;;5001558;28;19957;-64
2023/12/14 03:52:23;;;;;;;;;;;-0.20;99.90;;;;;;5003414;28;19926;-62
2023/12/14 03:54:50;;;;;;;;;;;-0.30;99.90;;;;;;4996857;28;20049;-63
2023/12/14 03:57:17;;;;;;;;;;;-0.30;99.90;;;;;;5001454;28;20727;-63
2023/12/14 03:59:44;;;;;;;;;;;-0.30;99.90;;;;;;5001103;28;19929;-61
2023/12/14 04:02:10;;;;;;;;;;;-0.20;99.90;;;;;;5000995;28;19972;-61
2023/12/14 04:04:37;;;;;;;;;;;-0.20;99.90;;;;;;5002158;28;19926;-62
2023/12/14 04:07:05;;;;;;;;;;;-0.30;99.90;;;;;;5003932;28;19929;-63
2023/12/14 04:09:31;;;;;;;;;;;-0.30;99.90;;;;;;5002104;28;19974;-60
2023/12/14 04:11:58;;;;;;;;;;;-0.30;99.90;;;;;;5002051;28;20409;-61
2023/12/14 04:14:25;;;;;;;;;;;-0.30;99.90;;;;;;5000493;28;20107;-60
2023/12/14 04:16:52;;;;;;;;;;;-0.30;99.90;;;;;;5000942;28;19937;-61
2023/12/14 04:19:18;;;;;;;;;;;-0.30;99.90;;;;;;5007324;28;19932;-60
2023/12/14 04:21:45;;;;;;;;;;;-0.30;99.90;;;;;;4995959;28;19973;-62
2023/12/14 04:24:12;;;;;;;;;;;-0.30;99.90;;;;;;5000583;28;20012;-60
2023/12/14 04:26:39;;;;;;;;;;;-0.30;99.90;;;;;;5000762;28;19929;-61
2023/12/14 04:29:07;;;;;;;;;;;-0.30;99.90;;;;;;5001945;28;19936;-60
2023/12/14 04:31:34;;;;;;;;;;;-0.30;99.90;;;;;;4997899;28;19944;-65
2023/12/14 04:34:01;;;;;;;;;;;-0.30;99.90;;;;;;4998490;28;19934;-66
2023/12/14 04:36:28;;;;;;;;;;;-0.30;99.90;;;;;;5002165;28;20028;-60
2023/12/14 04:38:55;;;;;;;;;;;-0.30;99.90;;;;;;5002974;28;19958;-60
2023/12/14 04:41:21;;;;;;;;;;;-0.30;99.90;;;;;;5001452;28;19956;-62
2023/12/14 04:43:48;;;;;;;;;;;-0.20;99.90;;;;;;4997757;28;19940;-64
2023/12/14 04:46:15;;;;;;;;;;;-0.20;99.90;;;;;;4996750;28;19956;-66
2023/12/14 04:48:43;;;;;;;;;;;-0.20;99.90;;;;;;5001633;28;19929;-61
2023/12/14 04:51:13;;;;;;;;;;;-0.20;99.90;;;;;;4998099;28;20029;-63
2023/12/14 04:53:40;;;;;;;;;;;-0.20;99.90;;;;;;5000660;28;19925;-61
2023/12/14 04:56:11;;;;;;;;;;;-0.20;99.90;;;;;;4998052;28;20116;-62
2023/12/14 04:58:41;;;;;;;;;;;-0.20;99.90;;;;;;4994697;28;19959;-60
2023/12/14 05:01:08;;;;;;;;;;;-0.20;99.90;;;;;;4996148;28;19940;-60
2023/12/14 05:03:35;;;;;;;;;;;-0.20;99.90;;;;;;4998136;28;19980;-60
2023/12/14 05:06:02;;;;;;;;;;;-0.20;99.90;;;;;;4999452;28;20011;-61
2023/12/14 05:08:29;;;;;;;;;;;-0.20;99.90;;;;;;4995410;28;19995;-61
2023/12/14 05:10:56;;;;;;;;;;;-0.20;99.90;;;;;;5003844;28;20344;-61
2023/12/14 05:13:23;;;;;;;;;;;-0.20;99.90;;;;;;5003360;28;20522;-62
2023/12/14 05:15:51;;;;;;;;;;;-0.20;99.90;;;;;;4998994;28;20330;-62
2023/12/14 05:18:18;;;;;;;;;;;-0.20;99.90;;;;;;5001303;28;20426;-63
2023/12/14 05:20:45;;;;;;;;;;;-0.20;99.90;;;;;;5000669;28;20020;-60
2023/12/14 05:23:12;;;;;;;;;;;-0.20;99.90;;;;;;5000552;28;20037;-60
2023/12/14 05:25:39;;;;;;;;;;;-0.20;99.90;;;;;;5002805;28;19938;-61
2023/12/14 05:28:06;;;;;;;;;;;-0.20;99.90;;;;;;5000212;28;19934;-60
2023/12/14 05:30:33;;;;;;;;;;;-0.30;99.90;;;;;;4996497;28;19973;-63
2023/12/14 05:33:00;;;;;;;;;;;-0.30;99.90;;;;;;5009286;28;20299;-60
2023/12/14 05:35:27;;;;;;;;;;;-0.30;99.90;;;;;;4997555;28;19925;-60
2023/12/14 05:37:53;;;;;;;;;;;-0.30;99.90;;;;;;5002334;28;19933;-62
2023/12/14 05:40:20;;;;;;;;;;;-0.40;99.90;;;;;;5000878;28;19933;-61
2023/12/14 05:42:47;;;;;;;;;;;-0.30;99.90;;;;;;4998711;28;19984;-60
2023/12/14 05:45:14;;;;;;;;;;;-0.40;99.90;;;;;;5003959;28;19948;-62
2023/12/14 05:47:41;;;;;;;;;;;-0.40;99.90;;;;;;4999694;28;20016;-60
2023/12/14 05:50:09;;;;;;;;;;;-0.40;99.90;;;;;;4999238;28;20388;-61
2023/12/14 05:52:37;;;;;;;;;;;-0.40;99.90;;;;;;4995837;28;19973;-62
2023/12/14 05:55:07;;;;;;;;;;;-0.40;99.90;;;;;;4998264;28;19933;-60
2023/12/14 05:57:34;;;;;;;;;;;-0.40;99.90;;;;;;5006489;28;19933;-60
2023/12/14 06:00:00;;;;;;;;;;;-0.40;99.90;;;;;;5002668;28;20039;-61
2023/12/14 06:02:31;;;;;;;;;;;-0.40;99.90;;;;;;5004621;28;19983;-63
2023/12/14 06:04:59;;;;;;;;;;;-0.40;99.90;;;;;;5003431;28;19929;-61
2023/12/14 06:07:25;;;;;;;;;;;-0.40;99.90;;;;;;5002087;28;19929;-61
2023/12/14 06:09:52;;;;;;;;;;;-0.50;99.90;;;;;;5004635;28;19925;-61
2023/12/14 06:12:19;;;;;;;;;;;-0.50;99.90;;;;;;5002480;28;19926;-61
2023/12/14 06:14:46;;;;;;;;;;;-0.50;99.90;;;;;;4998945;28;19937;-61
2023/12/14 06:17:13;;;;;;;;;;;-0.50;99.90;;;;;;5001876;28;19953;-62
2023/12/14 06:19:40;;;;;;;;;;;-0.50;99.90;;;;;;5005170;28;19925;-68
2023/12/14 06:22:06;;;;;;;;;;;-0.60;99.90;;;;;;5003392;28;19941;-63
2023/12/14 06:24:33;;;;;;;;;;;-0.60;99.90;;;;;;5003314;28;19932;-64
2023/12/14 06:27:00;;;;;;;;;;;-0.60;99.90;;;;;;5021353;28;19953;-61
2023/12/14 06:29:27;;;;;;;;;;;-0.60;99.90;;;;;;5002687;28;20268;-62
2023/12/14 06:31:53;;;;;;;;;;;-0.70;99.90;;;;;;5000913;28;20383;-60
2023/12/14 06:34:20;;;;;;;;;;;-0.70;99.90;;;;;;5002184;28;19940;-62
2023/12/14 06:36:47;;;;;;;;;;;-0.70;99.90;;;;;;5004013;28;19972;-59
2023/12/14 06:39:14;;;;;;;;;;;-0.70;99.90;;;;;;5004440;28;19960;-62
2023/12/14 06:41:44;;;;;;;;;;;-0.70;99.90;;;;;;5003706;28;19929;-62
2023/12/14 06:44:11;;;;;;;;;;;-0.80;99.90;;;;;;5004629;28;20356;-61
2023/12/14 06:46:38;;;;;;;;;;;-0.70;99.90;;;;;;5005135;28;19926;-60
2023/12/14 06:49:05;;;;;;;;;;;-0.80;99.90;;;;;;5002234;28;19930;-61
2023/12/14 06:51:32;;;;;;;;;;;-0.80;99.90;;;;;;5002468;28;19968;-65
2023/12/14 06:53:59;;;;;;;;;;;-0.90;99.90;;;;;;5004323;28;19936;-63
2023/12/14 06:56:25;;;;;;;;;;;-0.90;99.90;;;;;;5005446;28;19960;-60
2023/12/14 06:58:52;;;;;;;;;;;-0.90;99.90;;;;;;4999008;28;19973;-62
2023/12/14 07:01:19;;;;;;;;;;;-0.90;99.90;;;;;;5019593;28;20463;-61
2023/12/14 07:03:46;;;;;;;;;;;-1.00;99.90;;;;;;4995948;28;20415;-61
2023/12/14 07:06:17;;;;;;;;;;;-1.00;99.90;;;;;;4999624;28;19926;-60
2023/12/14 07:08:44;;;;;;;;;;;-1.00;99.90;;;;;;5000519;28;19944;-59
2023/12/14 07:11:11;;;;;;;;;;;-1.00;99.90;;;;;;4993021;28;20386;-61
2023/12/14 07:13:39;;;;;;;;;;;-1.00;99.90;;;;;;5000319;28;19965;-60
2023/12/14 07:16:09;;;;;;;;;;;-1.00;99.90;;;;;;5001847;28;20338;-60
2023/12/14 07:18:37;;;;;;;;;;;-1.10;99.90;;;;;;5000514;28;19926;-65
2023/12/14 07:21:04;;;;;;;;;;;-1.20;99.90;;;;;;5002666;28;19937;-61
2023/12/14 07:23:31;;;;;;;;;;;-1.10;99.90;;;;;;5003368;28;20028;-64
2023/12/14 07:25:58;;;;;;;;;;;-1.20;99.90;;;;;;5005263;28;19988;-63
2023/12/14 07:28:29;;;;;;;;;;;-1.20;99.90;;;;;;4998882;28;19941;-61
2023/12/14 07:30:56;;;;;;;;;;;-1.20;99.90;;;;;;5003091;28;20103;-64
2023/12/14 07:33:23;;;;;;;;;;;-1.30;99.90;;;;;;5000222;28;19925;-60
2023/12/14 07:35:50;;;;;;;;;;;-1.30;99.90;;;;;;5004432;28;19965;-60
2023/12/14 07:38:17;;;;;;;;;;;-1.40;99.90;;;;;;5002144;28;19930;-60
2023/12/14 07:40:45;;;;;;;;;;;-1.40;99.90;;;;;;5002205;28;19935;-65
2023/12/14 07:43:12;;;;;;;;;;;-1.40;99.90;;;;;;5001098;28;20403;-60
2023/12/14 07:45:38;;;;;;;;;;;-1.30;99.90;;;;;;4999964;28;19933;-60
2023/12/14 07:48:05;;;;;;;;;;;-1.30;99.90;;;;;;5003368;28;19988;-65
2023/12/14 07:50:32;;;;;;;;;;;-1.40;99.90;;;;;;5000874;28;19933;-61
2023/12/14 07:52:59;;;;;;;;;;;-1.40;99.90;;;;;;4995314;28;19969;-61
2023/12/14 07:55:26;;;;;;;;;;;-1.50;99.90;;;;;;5001052;28;19929;-66
2023/12/14 07:57:53;;;;;;;;;;;-1.50;99.90;;;;;;5004669;28;20263;-61
2023/12/14 08:00:19;;;;;;;;;;;-1.50;99.90;;;;;;5004936;28;19926;-60
2023/12/14 08:02:46;;;;;;;;;;;-1.60;99.90;;;;;;5001923;28;20016;-62
2023/12/14 08:05:13;;;;;;;;;;;-1.60;99.90;;;;;;5001866;28;19973;-60
2023/12/14 08:07:40;;;;;;;;;;;-1.60;99.90;;;;;;5001922;28;19930;-61
2023/12/14 08:10:07;;;;;;;;;;;-1.70;99.90;;;;;;5001861;28;20081;-61
2023/12/14 08:12:34;;;;;;;;;;;-1.70;99.90;;;;;;5001652;28;19972;-63
2023/12/14 08:15:01;;;;;;;;;;;-1.70;99.90;;;;;;5001238;28;19925;-62
2023/12/14 08:17:28;;;;;;;;;;;-1.70;99.90;;;;;;5003940;28;19929;-61
2023/12/14 08:19:55;;;;;;;;;;;-1.70;99.90;;;;;;5001250;28;20017;-60
2023/12/14 08:22:22;;;;;;;;;;;-1.70;99.90;;;;;;5003033;28;19948;-59
2023/12/14 08:24:49;;;;;;;;;;;-1.70;99.90;;;;;;5000293;28;19926;-60
2023/12/14 08:27:16;;;;;;;;;;;-1.70;99.90;;;;;;5004230;28;19979;-62
2023/12/14 08:29:45;;;;;;;;;;;-1.70;99.90;;;;;;5000840;28;20375;-64
2023/12/14 08:32:12;;;;;;;;;;;-1.70;99.90;;;;;;4999909;28;19965;-65
2023/12/14 08:34:40;;;;;;;;;;;-1.70;99.90;;;;;;5001973;28;19957;-60
2023/12/14 08:37:07;;;;;;;;;;;-1.70;99.90;;;;;;4994599;28;20024;-65
2023/12/14 08:39:36;;;;;;;;;;;-1.70;99.90;;;;;;4998841;28;20859;-62
2023/12/14 08:42:03;;;;;;;;;;;-1.80;99.90;;;;;;5001422;28;20019;-60
2023/12/14 08:44:30;;;;;;;;;;;-1.80;99.90;;;;;;5001165;28;19926;-62
2023/12/14 08:46:57;;;;;;;;;;;-1.80;99.90;;;;;;4999651;28;20084;-66
2023/12/14 08:49:23;;;;;;;;;;;-1.80;99.90;;;;;;5001182;28;19937;-60
2023/12/14 08:51:50;;;;;;;;;;;-1.80;99.90;;;;;;5001338;28;20260;-61
2023/12/14 08:54:17;;;;;;;;;;;-1.90;99.90;;;;;;4999199;28;20023;-67
2023/12/14 08:56:44;;;;;;;;;;;-1.90;99.90;;;;;;4998424;28;19926;-61
2023/12/14 08:59:11;;;;;;;;;;;-1.90;99.90;;;;;;5000132;28;20276;-60
2023/12/14 09:01:38;;;;;;;;;;;-1.90;99.90;;;;;;4998159;28;19926;-66
2023/12/14 09:04:05;;;;;;;;;;;-1.80;99.90;;;;;;4996992;28;19999;-60
2023/12/14 09:06:32;;;;;;;;;;;-1.90;99.90;;;;;;5001030;28;19965;-65
2023/12/14 09:08:59;;;;;;;;;;;-1.90;99.90;;;;;;5001163;28;19934;-65
2023/12/14 09:11:26;;;;;;;;;;;-1.90;99.90;;;;;;5003656;28;20340;-60
2023/12/14 09:13:53;;;;;;;;;;;-1.90;99.90;;;;;;5002509;28;19932;-61
2023/12/14 09:16:20;;;;;;;;;;;-1.90;99.90;;;;;;5004485;28;19948;-63
2023/12/14 09:18:47;;;;;;;;;;;-1.90;99.90;;;;;;5000828;28;19953;-61
2023/12/14 09:21:14;;;;;;;;;;;-1.90;99.90;;;;;;5001372;28;19937;-65
2023/12/14 09:23:42;;;;;;;;;;;-1.90;99.90;;;;;;5001592;28;20023;-60
2023/12/14 09:26:10;;;;;;;;;;;-1.90;99.90;;;;;;5005714;28;19933;-61
2023/12/14 09:28:37;;;;;;;;;;;-1.90;99.90;;;;;;5001229;28;19972;-60
2023/12/14 09:31:04;;;;;;;;;;;-1.80;99.90;;;;;;5007403;28;20028;-63
2023/12/14 09:33:34;;;;;;;;;;;-1.90;99.90;;;;;;5003787;28;20372;-61
2023/12/14 09:36:02;;;;;;;;;;;-1.90;99.90;;;;;;5004310;28;19925;-62
2023/12/14 09:38:28;;;;;;;;;;;-1.90;99.90;;;;;;5002612;28;19933;-65
2023/12/14 09:40:56;;;;;;;;;;;-1.80;99.90;;;;;;5010457;28;20323;-61
2023/12/14 09:43:23;;;;;;;;;;;-1.80;99.90;;;;;;5006380;28;20028;-60
2023/12/14 09:45:51;;;;;;;;;;;-1.80;99.90;;;;;;5008789;28;19935;-65
2023/12/14 09:48:18;;;;;;;;;;;-1.80;99.90;;;;;;5036006;28;20020;-60
2023/12/14 09:50:45;;;;;;;;;;;-1.80;99.90;;;;;;4998757;28;19972;-67
2023/12/14 09:53:12;;;;;;;;;;;-1.90;99.90;;;;;;5000716;28;19961;-63
2023/12/14 09:55:39;;;;;;;;;;;-1.80;99.90;;;;;;5004422;28;19976;-67
2023/12/14 09:58:09;;;;;;;;;;;-1.80;99.90;;;;;;5003768;28;19929;-63
2023/12/14 10:00:40;;;;;;;;;;;-1.80;99.90;;;;;;5003793;28;19930;-60
2023/12/14 10:03:20;;;;;;;;;;;-1.80;99.90;;;;;;5004840;28;19930;-59
2023/12/14 10:05:48;;;;;;;;;;;-1.80;99.90;;;;;;5001720;28;19933;-67
2023/12/14 10:08:16;;;;;;;;;;;-1.80;99.90;;;;;;5000839;28;19926;-63
2023/12/14 10:10:44;;;;;;;;;;;-1.80;99.90;;;;;;5007597;28;20261;-63
2023/12/14 10:13:12;;;;;;;;;;;-1.80;99.90;;;;;;5008163;28;20406;-60
2023/12/14 10:15:43;;;;;;;;;;;-1.80;99.90;;;;;;5001448;28;19926;-68
2023/12/14 10:18:10;;;;;;;;;;;-1.80;99.90;;;;;;5000911;28;20449;-62
2023/12/14 10:20:38;;;;;;;;;;;-1.80;99.90;;;;;;5005533;28;20437;-60
2023/12/14 10:23:06;;;;;;;;;;;-1.80;99.90;;;;;;5000700;28;19940;-62
2023/12/14 10:25:35;;;;;;;;;;;-1.80;99.90;;;;;;5001401;28;20024;-62
2023/12/14 10:28:03;;;;;;;;;;;-1.90;99.90;;;;;;5007191;28;19957;-62
2023/12/14 10:30:30;;;;;;;;;;;-1.90;99.90;;;;;;5007506;28;20363;-60
2023/12/14 10:33:00;;;;;;;;;;;-1.90;99.90;;;;;;5007807;28;20353;-60
2023/12/14 10:35:27;;;;;;;;;;;-1.90;99.90;;;;;;5006863;28;19972;-61
2023/12/14 10:37:55;;;;;;;;;;;-1.90;99.90;;;;;;5000161;28;20392;-65
2023/12/14 10:40:23;;;;;;;;;;;-1.90;99.90;;;;;;5003766;28;19925;-60
2023/12/14 10:42:50;;;;;;;;;;;-2.00;99.90;;;;;;5003312;28;19933;-64
2023/12/14 10:45:18;;;;;;;;;;;-2.00;99.90;;;;;;4999338;28;20394;-61
2023/12/14 10:47:50;;;;;;;;;;;-2.00;99.90;;;;;;5003019;28;20327;-60
2023/12/14 10:50:18;;;;;;;;;;;-2.00;99.90;;;;;;5003699;28;20268;-60
2023/12/14 10:52:45;;;;;;;;;;;-2.00;99.90;;;;;;5002087;28;19933;-63
2023/12/14 10:55:21;;;;;;;;;;;-2.00;99.90;;;;;;4997492;28;20492;-62
2023/12/14 10:57:47;;;;;;;;;;;-2.00;99.90;;;;;;5006705;28;20457;-63
2023/12/14 11:00:17;;;;;;;;;;;-2.00;99.90;;;;;;5004185;28;20033;-61
2023/12/14 11:02:47;;;;;;;;;;;-2.00;99.90;;;;;;5002592;28;20435;-61
2023/12/14 11:05:16;;;;;;;;;;;-2.00;99.90;;;;;;5006409;28;19926;-61
2023/12/14 11:07:46;;;;;;;;;;;-2.00;99.90;;;;;;5004943;28;19933;-61
2023/12/14 11:10:13;;;;;;;;;;;-2.10;99.90;;;;;;4999935;28;20022;-63
2023/12/14 11:12:50;;;;;;;;;;;-2.10;99.90;;;;;;5006612;28;20430;-59
2023/12/14 11:15:17;;;;;;;;;;;-2.10;99.90;;;;;;5004197;28;19926;-60
2023/12/14 11:18:04;;;;;;;;;;;-2.10;99.90;;;;;;5001954;28;20446;-60
2023/12/14 11:20:31;;;;;;;;;;;-2.20;99.90;;;;;;4998487;28;20311;-65
2023/12/14 11:23:06;;;;;;;;;;;-2.20;99.90;;;;;;5000819;28;21558;-61
2023/12/14 11:25:34;;;;;;;;;;;-2.20;99.90;;;;;;5002633;28;20353;-61
2023/12/14 11:28:13;;;;;;;;;;;-2.20;99.90;;;;;;5003795;28;19933;-59
2023/12/14 11:30:39;;;;;;;;;;;-2.30;99.90;;;;;;5002869;28;20593;-59
2023/12/14 11:33:20;;;;;;;;;;;-2.20;99.90;;;;;;5001985;28;19957;-59
2023/12/14 11:35:48;;;;;;;;;;;-2.20;99.90;;;;;;5002261;28;19933;-65
2023/12/14 11:38:14;;;;;;;;;;;-2.30;99.90;;;;;;5004645;28;20019;-60
2023/12/14 11:40:42;;;;;;;;;;;-2.30;99.90;;;;;;5001815;28;19933;-59
2023/12/14 11:43:09;;;;;;;;;;;-2.30;99.90;;;;;;5001101;28;20410;-60
2023/12/14 11:45:40;;;;;;;;;;;-2.30;99.90;;;;;;5000525;28;19934;-66
2023/12/14 11:48:08;;;;;;;;;;;-2.30;99.90;;;;;;5006963;28;19936;-60
2023/12/14 11:50:35;;;;;;;;;;;-2.30;99.90;;;;;;5005171;28;20291;-60
2023/12/14 11:53:03;;;;;;;;;;;-2.30;99.90;;;;;;5001933;28;19925;-66
2023/12/14 11:55:31;;;;;;;;;;;-2.30;99.90;;;;;;5002319;28;19933;-61
2023/12/14 11:57:58;;;;;;;;;;;-2.30;99.90;;;;;;5015145;28;19961;-66
2023/12/14 12:00:28;;;;;;;;;;;-2.30;99.90;;;;;;5002698;28;19926;-63
2023/12/14 12:03:15;;;;;;;;;;;-2.30;99.90;;;;;;5005015;28;20024;-63
2023/12/14 12:05:47;;;;;;;;;;;-2.30;99.90;;;;;;4999724;28;19929;-62
2023/12/14 12:08:15;;;;;;;;;;;-2.30;99.90;;;;;;5001317;28;19933;-60
2023/12/14 12:10:43;;;;;;;;;;;-2.40;99.90;;;;;;4998099;28;20383;-61
2023/12/14 12:13:14;;;;;;;;;;;-2.30;99.90;;;;;;5002818;28;19981;-62
2023/12/14 12:15:41;;;;;;;;;;;-2.30;99.90;;;;;;5005869;28;19925;-59
2023/12/14 12:18:16;;;;;;;;;;;-2.30;99.90;;;;;;5001087;28;19936;-61
2023/12/14 12:20:44;;;;;;;;;;;-2.30;99.90;;;;;;4999116;28;19931;-59
2023/12/14 12:23:11;;;;;;;;;;;-2.40;99.90;;;;;;5001570;28;20007;-63
2023/12/14 12:25:38;;;;;;;;;;;-2.40;99.90;;;;;;5002169;28;19929;-63
2023/12/14 12:28:05;;;;;;;;;;;-2.40;99.90;;;;;;5002226;28;19929;-61
2023/12/14 12:30:32;;;;;;;;;;;-2.40;99.90;;;;;;5005621;28;19960;-65
2023/12/14 12:33:00;;;;;;;;;;;-2.40;99.90;;;;;;5004689;28;20625;-62
2023/12/14 12:35:30;;;;;;;;;;;-2.40;99.90;;;;;;4998039;28;19988;-58
2023/12/14 12:37:56;;;;;;;;;;;-2.40;99.90;;;;;;4999856;28;19926;-58
2023/12/14 12:40:26;;;;;;;;;;;-2.40;99.90;;;;;;5001385;28;19980;-63
2023/12/14 12:42:53;;;;;;;;;;;-2.40;99.90;;;;;;5000172;28;19979;-61
2023/12/14 12:45:22;;;;;;;;;;;-2.40;99.90;;;;;;5000626;28;19925;-59
2023/12/14 12:47:49;;;;;;;;;;;-2.40;99.90;;;;;;5000124;28;19926;-60
2023/12/14 12:50:16;;;;;;;;;;;-2.40;99.90;;;;;;4999176;28;19926;-63
2023/12/14 12:52:45;;;;;;;;;;;-2.40;99.90;;;;;;4998576;28;19926;-60
2023/12/14 12:55:13;;;;;;;;;;;-2.40;99.90;;;;;;5000921;28;19956;-62
2023/12/14 12:57:41;;;;;;;;;;;-2.40;99.90;;;;;;5003144;28;19930;-59
2023/12/14 13:00:11;;;;;;;;;;;-2.40;99.90;;;;;;5003736;28;20383;-59
2023/12/14 13:02:39;;;;;;;;;;;-2.50;99.90;;;;;;5002979;28;20632;-59
2023/12/14 13:05:07;;;;;;;;;;;-2.50;99.90;;;;;;5001547;28;19936;-59
2023/12/14 13:07:34;;;;;;;;;;;-2.50;99.90;;;;;;5004226;28;19932;-60
2023/12/14 13:10:03;;;;;;;;;;;-2.50;99.90;;;;;;5000968;28;19925;-60
2023/12/14 13:12:41;;;;;;;;;;;-2.50;99.90;;;;;;5000089;28;19925;-59
2023/12/14 13:15:08;;;;;;;;;;;-2.50;99.90;;;;;;5002966;28;19929;-64
2023/12/14 13:17:35;;;;;;;;;;;-2.50;99.90;;;;;;4996801;28;19976;-60
2023/12/14 13:20:03;;;;;;;;;;;-2.50;99.90;;;;;;4995182;28;19931;-60
2023/12/14 13:22:29;;;;;;;;;;;-2.50;99.90;;;;;;4998897;28;19929;-60
2023/12/14 13:24:57;;;;;;;;;;;-2.50;99.90;;;;;;5001115;28;19933;-60
2023/12/14 13:27:24;;;;;;;;;;;-2.50;99.90;;;;;;5001233;28;20427;-59
2023/12/14 13:29:51;;;;;;;;;;;-2.50;99.90;;;;;;4997986;28;20529;-67
2023/12/14 13:32:18;;;;;;;;;;;-2.50;99.90;;;;;;5002120;28;20012;-60
2023/12/14 13:34:45;;;;;;;;;;;-2.50;99.90;;;;;;4999560;28;19984;-61
2023/12/14 13:37:13;;;;;;;;;;;-2.60;99.90;;;;;;5001929;28;19969;-59
2023/12/14 13:39:39;;;;;;;;;;;-2.60;99.90;;;;;;5004359;28;19948;-59
2023/12/14 13:42:06;;;;;;;;;;;-2.60;99.90;;;;;;5002925;28;20023;-65
2023/12/14 13:44:34;;;;;;;;;;;-2.60;99.90;;;;;;5005497;28;20391;-64
2023/12/14 13:47:01;;;;;;;;;;;-2.70;99.90;;;;;;4995763;28;19968;-59
2023/12/14 13:49:28;;;;;;;;;;;-2.60;99.90;;;;;;5000716;28;19933;-59
2023/12/14 13:51:55;;;;;;;;;;;-2.60;99.90;;;;;;4999756;28;19932;-59
2023/12/14 13:54:22;;;;;;;;;;;-2.70;99.90;;;;;;5001328;28;19957;-60
2023/12/14 13:56:49;;;;;;;;;;;-2.70;99.90;;;;;;5001383;28;19972;-64
2023/12/14 13:59:16;;;;;;;;;;;-2.70;99.90;;;;;;5002228;28;19956;-59
2023/12/14 14:01:43;;;;;;;;;;;-2.70;99.90;;;;;;5001102;28;20426;-61
2023/12/14 14:04:10;;;;;;;;;;;-2.70;99.90;;;;;;4995354;28;19934;-60
2023/12/14 14:06:37;;;;;;;;;;;-2.70;99.90;;;;;;5000503;28;19972;-64
2023/12/14 14:09:04;;;;;;;;;;;-2.70;99.90;;;;;;5000996;28;20279;-60
2023/12/14 14:11:30;;;;;;;;;;;-2.70;99.90;;;;;;4997282;28;19960;-60
2023/12/14 14:13:58;;;;;;;;;;;-2.60;99.90;;;;;;5001763;28;19925;-60
2023/12/14 14:16:24;;;;;;;;;;;-2.60;99.90;;;;;;5002105;28;19953;-59
2023/12/14 14:18:51;;;;;;;;;;;-2.70;99.90;;;;;;5001710;28;19925;-59
2023/12/14 14:21:18;;;;;;;;;;;-2.60;99.90;;;;;;5003158;28;19930;-61